createdAt,value
2019-01-26T00:00:21.201Z,17.38
2019-01-26T00:01:21.122Z,17.37
2019-01-26T00:02:21.076Z,17.37
2019-01-26T00:03:21.156Z,17.36
2019-01-26T00:04:21.221Z,17.36
2019-01-26T00:05:21.931Z,17.35
2019-01-26T00:06:21.576Z,17.33
2019-01-26T00:07:21.100Z,17.33
2019-01-26T00:08:21.625Z,17.33
2019-01-26T00:09:21.092Z,17.32
2019-01-26T00:10:21.514Z,17.31
2019-01-26T00:11:21.314Z,17.31
2019-01-26T00:12:21.404Z,17.31
2019-01-26T00:13:21.501Z,17.3
2019-01-26T00:14:21.333Z,17.29
2019-01-26T00:15:21.453Z,17.29
2019-01-26T00:16:22.033Z,17.29
2019-01-26T00:17:21.739Z,17.28
2019-01-26T00:18:21.446Z,17.28
2019-01-26T00:19:21.206Z,17.27
2019-01-26T00:20:21.340Z,17.25
2019-01-26T00:21:21.144Z,17.25
2019-01-26T00:22:21.374Z,17.25
2019-01-26T00:23:21.541Z,17.25
2019-01-26T00:24:21.062Z,17.24
2019-01-26T00:25:21.413Z,17.24
2019-01-26T00:26:21.142Z,17.23
2019-01-26T00:27:21.716Z,17.23
2019-01-26T00:28:21.230Z,17.22
2019-01-26T00:29:21.316Z,17.21
2019-01-26T00:30:21.361Z,17.2
2019-01-26T00:31:21.201Z,17.21
2019-01-26T00:32:21.323Z,17.2
2019-01-26T00:33:21.393Z,17.2
2019-01-26T00:34:21.148Z,17.2
2019-01-26T00:35:21.490Z,17.18
2019-01-26T00:36:21.573Z,17.18
2019-01-26T00:37:21.123Z,17.17
2019-01-26T00:38:21.284Z,17.17
2019-01-26T00:39:21.495Z,17.17
2019-01-26T00:40:22.988Z,17.17
2019-01-26T00:41:21.257Z,17.16
2019-01-26T00:42:21.711Z,17.15
2019-01-26T00:43:21.235Z,17.14
2019-01-26T00:44:21.422Z,17.14
2019-01-26T00:45:21.351Z,17.14
2019-01-26T00:46:21.193Z,17.13
2019-01-26T00:47:21.434Z,17.13
2019-01-26T00:48:21.295Z,17.13
2019-01-26T00:49:24.524Z,17.11
2019-01-26T00:50:21.353Z,17.11
2019-01-26T00:51:21.280Z,17.1
2019-01-26T00:52:21.469Z,17.1
2019-01-26T00:53:21.077Z,17.1
2019-01-26T00:54:21.608Z,17.09
2019-01-26T00:55:21.609Z,17.07
2019-01-26T00:56:21.313Z,17.07
2019-01-26T00:57:21.340Z,17.07
2019-01-26T00:58:24.163Z,17.06
2019-01-26T00:59:21.129Z,17.06
2019-01-26T01:00:21.254Z,17.05
2019-01-26T01:01:21.339Z,17.04
2019-01-26T01:02:21.450Z,17.04
2019-01-26T01:03:21.145Z,17.03
2019-01-26T01:04:21.487Z,17.04
2019-01-26T01:05:21.289Z,17.03
2019-01-26T01:06:26.410Z,17.04
2019-01-26T01:07:21.573Z,17.03
2019-01-26T01:08:21.345Z,17.02
2019-01-26T01:09:21.275Z,17.01
2019-01-26T01:10:21.329Z,17.02
2019-01-26T01:11:21.150Z,17.01
2019-01-26T01:12:21.153Z,17
2019-01-26T01:13:21.749Z,17.01
2019-01-26T01:14:20.998Z,16.99
2019-01-26T01:15:21.989Z,16.98
2019-01-26T01:16:21.287Z,16.99
2019-01-26T01:17:20.980Z,16.98
2019-01-26T01:18:21.368Z,16.98
2019-01-26T01:19:22.140Z,16.97
2019-01-26T01:20:21.362Z,16.96
2019-01-26T01:21:21.711Z,16.96
2019-01-26T01:22:21.173Z,16.94
2019-01-26T01:23:21.896Z,16.95
2019-01-26T01:24:21.223Z,16.93
2019-01-26T01:25:21.262Z,16.93
2019-01-26T01:26:21.334Z,16.93
2019-01-26T01:27:21.359Z,16.92
2019-01-26T01:28:21.744Z,16.92
2019-01-26T01:29:21.245Z,16.92
2019-01-26T01:30:21.782Z,16.92
2019-01-26T01:31:21.050Z,16.92
2019-01-26T01:32:21.265Z,16.91
2019-01-26T01:33:21.131Z,16.9
2019-01-26T01:34:21.096Z,16.9
2019-01-26T01:35:21.335Z,16.91
2019-01-26T01:36:21.174Z,16.9
2019-01-26T01:37:21.569Z,16.9
2019-01-26T01:38:21.901Z,16.89
2019-01-26T01:39:21.746Z,16.87
2019-01-26T01:40:21.009Z,16.86
2019-01-26T01:41:21.451Z,16.86
2019-01-26T01:42:21.109Z,16.85
2019-01-26T01:43:21.410Z,16.85
2019-01-26T01:44:21.308Z,16.84
2019-01-26T01:45:21.377Z,16.84
2019-01-26T01:46:21.084Z,16.85
2019-01-26T01:47:21.338Z,16.85
2019-01-26T01:48:22.093Z,16.83
2019-01-26T01:49:21.073Z,16.83
2019-01-26T01:50:21.277Z,16.82
2019-01-26T01:51:21.487Z,16.83
2019-01-26T01:52:23.020Z,16.82
2019-01-26T01:53:21.212Z,16.81
2019-01-26T01:54:21.348Z,16.81
2019-01-26T01:55:21.004Z,16.81
2019-01-26T01:56:21.248Z,16.8
2019-01-26T01:57:22.437Z,16.8
2019-01-26T01:58:21.317Z,16.79
2019-01-26T01:59:21.352Z,16.79
2019-01-26T02:00:21.532Z,16.8
2019-01-26T02:01:21.158Z,16.8
2019-01-26T02:02:21.197Z,16.79
2019-01-26T02:03:21.338Z,16.79
2019-01-26T02:04:21.156Z,16.79
2019-01-26T02:05:21.702Z,16.79
2019-01-26T02:06:21.428Z,16.79
2019-01-26T02:07:20.963Z,16.78
2019-01-26T02:08:21.195Z,16.78
2019-01-26T02:09:21.082Z,16.78
2019-01-26T02:10:21.433Z,16.78
2019-01-26T02:11:21.301Z,16.76
2019-01-26T02:12:21.289Z,16.76
2019-01-26T02:13:21.144Z,16.76
2019-01-26T02:14:21.348Z,16.74
2019-01-26T02:15:21.465Z,16.74
2019-01-26T02:16:21.095Z,16.74
2019-01-26T02:17:21.507Z,16.73
2019-01-26T02:18:21.318Z,16.73
2019-01-26T02:19:21.293Z,16.73
2019-01-26T02:20:21.078Z,16.73
2019-01-26T02:21:21.204Z,16.73
2019-01-26T02:22:21.500Z,16.73
2019-01-26T02:23:21.392Z,16.72
2019-01-26T02:24:21.716Z,16.72
2019-01-26T02:25:21.346Z,16.71
2019-01-26T02:26:21.884Z,16.7
2019-01-26T02:27:21.116Z,16.71
2019-01-26T02:28:21.207Z,16.7
2019-01-26T02:29:21.145Z,16.71
2019-01-26T02:30:21.592Z,16.7
2019-01-26T02:31:21.819Z,16.68
2019-01-26T02:32:21.200Z,16.68
2019-01-26T02:33:21.403Z,16.68
2019-01-26T02:34:21.819Z,16.68
2019-01-26T02:35:21.338Z,16.67
2019-01-26T02:36:21.106Z,16.67
2019-01-26T02:37:21.512Z,16.67
2019-01-26T02:38:21.402Z,16.67
2019-01-26T02:39:21.165Z,16.66
2019-01-26T02:40:21.096Z,16.66
2019-01-26T02:41:24.229Z,16.66
2019-01-26T02:42:21.754Z,16.66
2019-01-26T02:43:21.070Z,16.66
2019-01-26T02:44:21.245Z,16.65
2019-01-26T02:45:21.337Z,16.65
2019-01-26T02:46:21.049Z,16.65
2019-01-26T02:47:21.565Z,16.65
2019-01-26T02:48:21.470Z,16.65
2019-01-26T02:49:21.505Z,16.64
2019-01-26T02:50:21.679Z,16.64
2019-01-26T02:51:21.387Z,16.63
2019-01-26T02:52:21.034Z,16.63
2019-01-26T02:53:21.333Z,16.62
2019-01-26T02:54:21.528Z,16.62
2019-01-26T02:55:24.276Z,16.63
2019-01-26T02:56:21.501Z,16.63
2019-01-26T02:57:21.762Z,16.62
2019-01-26T02:58:21.343Z,16.61
2019-01-26T02:59:21.960Z,16.61
2019-01-26T03:00:23.067Z,16.6
2019-01-26T03:01:21.053Z,16.6
2019-01-26T03:02:21.199Z,16.6
2019-01-26T03:03:21.284Z,16.59
2019-01-26T03:04:21.429Z,16.58
2019-01-26T03:05:21.164Z,16.59
2019-01-26T03:06:21.137Z,16.59
2019-01-26T03:07:21.440Z,16.58
2019-01-26T03:08:21.013Z,16.59
2019-01-26T03:09:21.669Z,16.58
2019-01-26T03:10:21.175Z,16.57
2019-01-26T03:11:23.004Z,16.57
2019-01-26T03:12:21.492Z,16.57
2019-01-26T03:13:21.086Z,16.56
2019-01-26T03:14:21.485Z,16.55
2019-01-26T03:15:21.235Z,16.55
2019-01-26T03:16:21.035Z,16.55
2019-01-26T03:17:21.540Z,16.54
2019-01-26T03:18:21.193Z,16.55
2019-01-26T03:19:21.071Z,16.53
2019-01-26T03:20:23.031Z,16.54
2019-01-26T03:21:21.314Z,16.54
2019-01-26T03:22:21.017Z,16.53
2019-01-26T03:23:21.631Z,16.53
2019-01-26T03:24:21.248Z,16.52
2019-01-26T03:25:21.339Z,16.52
2019-01-26T03:26:21.813Z,16.52
2019-01-26T03:27:21.241Z,16.53
2019-01-26T03:28:21.216Z,16.52
2019-01-26T03:29:21.490Z,16.51
2019-01-26T03:30:21.303Z,16.51
2019-01-26T03:31:21.558Z,16.51
2019-01-26T03:32:21.681Z,16.51
2019-01-26T03:33:22.000Z,16.51
2019-01-26T03:34:20.883Z,16.5
2019-01-26T03:35:21.337Z,16.49
2019-01-26T03:36:21.213Z,16.49
2019-01-26T03:37:21.292Z,16.49
2019-01-26T03:38:21.044Z,16.49
2019-01-26T03:39:21.366Z,16.49
2019-01-26T03:40:21.936Z,16.48
2019-01-26T03:41:21.142Z,16.48
2019-01-26T03:42:21.142Z,16.49
2019-01-26T03:43:21.221Z,16.48
2019-01-26T03:44:21.064Z,16.48
2019-01-26T03:45:21.196Z,16.47
2019-01-26T03:46:21.415Z,16.47
2019-01-26T03:47:21.013Z,16.47
2019-01-26T03:48:21.199Z,16.47
2019-01-26T03:49:21.190Z,16.47
2019-01-26T03:50:21.015Z,16.46
2019-01-26T03:51:21.460Z,16.45
2019-01-26T03:52:21.273Z,16.47
2019-01-26T03:53:21.126Z,16.46
2019-01-26T03:54:21.343Z,16.46
2019-01-26T03:55:21.480Z,16.45
2019-01-26T03:56:21.107Z,16.45
2019-01-26T03:57:21.132Z,16.44
2019-01-26T03:58:21.225Z,16.43
2019-01-26T03:59:20.989Z,16.44
2019-01-26T04:00:21.085Z,16.43
2019-01-26T04:01:21.216Z,16.43
2019-01-26T04:02:21.028Z,16.42
2019-01-26T04:03:21.431Z,16.43
2019-01-26T04:04:21.233Z,16.43
2019-01-26T04:05:21.282Z,16.42
2019-01-26T04:06:21.314Z,16.41
2019-01-26T04:07:21.275Z,16.42
2019-01-26T04:08:21.357Z,16.41
2019-01-26T04:09:21.548Z,16.41
2019-01-26T04:10:21.578Z,16.41
2019-01-26T04:11:22.190Z,16.4
2019-01-26T04:12:21.527Z,16.41
2019-01-26T04:13:21.328Z,16.4
2019-01-26T04:14:21.177Z,16.39
2019-01-26T04:15:21.080Z,16.39
2019-01-26T04:16:21.435Z,16.39
2019-01-26T04:17:22.419Z,16.4
2019-01-26T04:18:21.176Z,16.39
2019-01-26T04:19:21.280Z,16.37
2019-01-26T04:20:21.329Z,16.38
2019-01-26T04:21:21.142Z,16.37
2019-01-26T04:22:21.018Z,16.36
2019-01-26T04:23:21.228Z,16.37
2019-01-26T04:24:21.303Z,16.35
2019-01-26T04:25:21.198Z,16.36
2019-01-26T04:26:21.083Z,16.36
2019-01-26T04:27:21.135Z,16.36
2019-01-26T04:28:21.434Z,16.36
2019-01-26T04:29:21.323Z,16.35
2019-01-26T04:30:20.995Z,16.35
2019-01-26T04:31:21.714Z,16.34
2019-01-26T04:32:21.184Z,16.35
2019-01-26T04:33:21.774Z,16.34
2019-01-26T04:34:21.334Z,16.34
2019-01-26T04:35:21.438Z,16.34
2019-01-26T04:36:21.272Z,16.33
2019-01-26T04:37:21.241Z,16.33
2019-01-26T04:38:21.122Z,16.33
2019-01-26T04:39:21.474Z,16.34
2019-01-26T04:40:21.231Z,16.34
2019-01-26T04:41:21.169Z,16.34
2019-01-26T04:42:21.304Z,16.34
2019-01-26T04:43:21.256Z,16.35
2019-01-26T04:44:21.421Z,16.34
2019-01-26T04:45:21.419Z,16.34
2019-01-26T04:46:21.198Z,16.35
2019-01-26T04:47:21.137Z,16.35
2019-01-26T04:48:21.513Z,16.36
2019-01-26T04:49:21.263Z,16.35
2019-01-26T04:50:21.377Z,16.37
2019-01-26T04:51:21.229Z,16.37
2019-01-26T04:52:20.940Z,16.39
2019-01-26T04:53:21.303Z,16.4
2019-01-26T04:54:21.776Z,16.41
2019-01-26T04:55:20.988Z,16.41
2019-01-26T04:56:21.529Z,16.43
2019-01-26T04:57:21.072Z,16.44
2019-01-26T04:58:21.590Z,16.45
2019-01-26T04:59:21.125Z,16.46
2019-01-26T05:00:21.434Z,16.47
2019-01-26T05:01:21.166Z,16.48
2019-01-26T05:02:21.103Z,16.5
2019-01-26T05:03:21.102Z,16.51
2019-01-26T05:04:21.520Z,16.53
2019-01-26T05:05:21.156Z,16.53
2019-01-26T05:06:21.216Z,16.54
2019-01-26T05:07:21.186Z,16.56
2019-01-26T05:08:21.255Z,16.57
2019-01-26T05:09:21.451Z,16.58
2019-01-26T05:10:21.488Z,16.59
2019-01-26T05:11:20.987Z,16.61
2019-01-26T05:12:21.708Z,16.62
2019-01-26T05:13:21.475Z,16.63
2019-01-26T05:14:21.255Z,16.65
2019-01-26T05:15:21.458Z,16.66
2019-01-26T05:16:21.266Z,16.68
2019-01-26T05:17:23.661Z,16.7
2019-01-26T05:18:21.240Z,16.71
2019-01-26T05:19:23.067Z,16.73
2019-01-26T05:20:21.040Z,16.73
2019-01-26T05:21:21.464Z,16.75
2019-01-26T05:22:21.222Z,16.76
2019-01-26T05:23:21.300Z,16.78
2019-01-26T05:24:21.208Z,16.79
2019-01-26T05:25:21.280Z,16.81
2019-01-26T05:26:21.052Z,16.83
2019-01-26T05:27:20.994Z,16.84
2019-01-26T05:28:21.209Z,16.86
2019-01-26T05:29:23.993Z,16.88
2019-01-26T05:30:21.179Z,16.9
2019-01-26T05:31:21.471Z,16.92
2019-01-26T05:32:21.020Z,16.93
2019-01-26T05:33:21.079Z,16.95
2019-01-26T05:34:21.231Z,16.97
2019-01-26T05:35:21.286Z,16.99
2019-01-26T05:36:21.083Z,17
2019-01-26T05:37:21.244Z,17.02
2019-01-26T05:38:21.322Z,17.04
2019-01-26T05:39:21.193Z,17.06
2019-01-26T05:40:21.170Z,17.08
2019-01-26T05:41:21.303Z,17.1
2019-01-26T05:42:21.160Z,17.1
2019-01-26T05:43:21.471Z,17.11
2019-01-26T05:44:20.984Z,17.12
2019-01-26T05:45:21.394Z,17.13
2019-01-26T05:46:21.211Z,17.16
2019-01-26T05:47:23.422Z,17.17
2019-01-26T05:48:21.039Z,17.2
2019-01-26T05:49:21.284Z,17.21
2019-01-26T05:50:21.382Z,17.22
2019-01-26T05:51:20.938Z,17.23
2019-01-26T05:52:21.469Z,17.25
2019-01-26T05:53:20.965Z,17.27
2019-01-26T05:54:21.285Z,17.28
2019-01-26T05:55:21.398Z,17.29
2019-01-26T05:56:21.304Z,17.3
2019-01-26T05:57:21.340Z,17.31
2019-01-26T05:58:21.567Z,17.33
2019-01-26T05:59:21.421Z,17.34
2019-01-26T06:00:21.354Z,17.36
2019-01-26T06:01:21.298Z,17.36
2019-01-26T06:02:21.163Z,17.37
2019-01-26T06:03:21.137Z,17.38
2019-01-26T06:04:21.483Z,17.4
2019-01-26T06:05:21.270Z,17.42
2019-01-26T06:06:21.238Z,17.43
2019-01-26T06:07:21.477Z,17.44
2019-01-26T06:08:23.340Z,17.45
2019-01-26T06:09:21.733Z,17.45
2019-01-26T06:10:21.497Z,17.47
2019-01-26T06:11:25.900Z,17.48
2019-01-26T06:12:21.133Z,17.49
2019-01-26T06:13:21.344Z,17.51
2019-01-26T06:14:21.277Z,17.51
2019-01-26T06:15:20.993Z,17.54
2019-01-26T06:16:21.201Z,17.54
2019-01-26T06:17:21.859Z,17.54
2019-01-26T06:18:21.295Z,17.56
2019-01-26T06:19:21.462Z,17.56
2019-01-26T06:20:24.133Z,17.58
2019-01-26T06:21:21.389Z,17.59
2019-01-26T06:22:21.472Z,17.59
2019-01-26T06:23:21.193Z,17.6
2019-01-26T06:24:21.305Z,17.61
2019-01-26T06:25:21.478Z,17.62
2019-01-26T06:26:21.037Z,17.64
2019-01-26T06:27:22.019Z,17.66
2019-01-26T06:28:21.172Z,17.66
2019-01-26T06:29:21.448Z,17.67
2019-01-26T06:30:21.439Z,17.67
2019-01-26T06:31:21.154Z,17.67
2019-01-26T06:32:21.095Z,17.68
2019-01-26T06:33:21.362Z,17.69
2019-01-26T06:34:21.349Z,17.69
2019-01-26T06:35:22.488Z,17.71
2019-01-26T06:36:21.241Z,17.72
2019-01-26T06:37:21.171Z,17.73
2019-01-26T06:38:21.186Z,17.73
2019-01-26T06:39:20.991Z,17.75
2019-01-26T06:40:21.169Z,17.75
2019-01-26T06:41:21.515Z,17.76
2019-01-26T06:42:21.257Z,17.78
2019-01-26T06:43:21.328Z,17.78
2019-01-26T06:44:20.957Z,17.79
2019-01-26T06:45:22.657Z,17.79
2019-01-26T06:46:21.437Z,17.8
2019-01-26T06:47:24.605Z,17.81
2019-01-26T06:48:21.191Z,17.82
2019-01-26T06:49:23.040Z,17.84
2019-01-26T06:50:21.276Z,17.86
2019-01-26T06:51:21.213Z,17.86
2019-01-26T06:52:21.211Z,17.85
2019-01-26T06:53:21.430Z,17.86
2019-01-26T06:54:21.173Z,17.87
2019-01-26T06:55:21.054Z,17.88
2019-01-26T06:56:20.979Z,17.88
2019-01-26T06:57:21.345Z,17.9
2019-01-26T06:58:21.168Z,17.9
2019-01-26T06:59:21.355Z,17.91
2019-01-26T07:00:21.097Z,17.92
2019-01-26T07:01:21.237Z,17.92
2019-01-26T07:02:21.283Z,17.92
2019-01-26T07:03:21.017Z,17.92
2019-01-26T07:04:21.181Z,17.92
2019-01-26T07:05:21.220Z,17.93
2019-01-26T07:06:21.040Z,17.94
2019-01-26T07:07:21.120Z,17.95
2019-01-26T07:08:21.196Z,17.95
2019-01-26T07:09:21.346Z,17.96
2019-01-26T07:10:21.257Z,17.97
2019-01-26T07:11:20.975Z,17.96
2019-01-26T07:12:21.160Z,17.98
2019-01-26T07:13:21.209Z,17.97
2019-01-26T07:14:21.261Z,17.98
2019-01-26T07:15:21.110Z,17.98
2019-01-26T07:16:21.191Z,17.98
2019-01-26T07:17:20.995Z,17.99
2019-01-26T07:18:21.116Z,17.99
2019-01-26T07:19:21.285Z,18.01
2019-01-26T07:20:20.992Z,18.02
2019-01-26T07:21:21.151Z,18.01
2019-01-26T07:22:21.497Z,18.02
2019-01-26T07:23:21.080Z,18.02
2019-01-26T07:24:22.036Z,18.03
2019-01-26T07:25:21.369Z,18.04
2019-01-26T07:26:21.362Z,18.04
2019-01-26T07:27:20.907Z,18.04
2019-01-26T07:28:21.384Z,18.04
2019-01-26T07:29:21.314Z,18.05
2019-01-26T07:30:21.246Z,18.05
2019-01-26T07:31:21.161Z,18.06
2019-01-26T07:32:20.987Z,18.07
2019-01-26T07:33:21.743Z,18.07
2019-01-26T07:34:21.386Z,18.08
2019-01-26T07:35:21.041Z,18.08
2019-01-26T07:36:20.960Z,18.09
2019-01-26T07:37:21.297Z,18.1
2019-01-26T07:38:21.037Z,18.09
2019-01-26T07:39:21.107Z,18.1
2019-01-26T07:40:21.174Z,18.1
2019-01-26T07:41:21.571Z,18.1
2019-01-26T07:42:21.427Z,18.11
2019-01-26T07:43:21.542Z,18.11
2019-01-26T07:44:21.011Z,18.11
2019-01-26T07:45:21.061Z,18.12
2019-01-26T07:46:21.716Z,18.13
2019-01-26T07:47:20.993Z,18.13
2019-01-26T07:48:21.091Z,18.14
2019-01-26T07:49:21.395Z,18.14
2019-01-26T07:50:20.840Z,18.15
2019-01-26T07:51:21.223Z,18.16
2019-01-26T07:52:21.110Z,18.16
2019-01-26T07:53:21.330Z,18.17
2019-01-26T07:54:21.272Z,18.17
2019-01-26T07:55:21.198Z,18.17
2019-01-26T07:56:21.323Z,18.17
2019-01-26T07:57:21.076Z,18.18
2019-01-26T07:58:21.474Z,18.18
2019-01-26T07:59:21.672Z,18.18
2019-01-26T08:00:21.093Z,18.19
2019-01-26T08:01:21.762Z,18.19
2019-01-26T08:02:23.994Z,18.2
2019-01-26T08:03:21.123Z,18.21
2019-01-26T08:04:21.095Z,18.21
2019-01-26T08:05:21.197Z,18.22
2019-01-26T08:06:21.095Z,18.23
2019-01-26T08:07:21.116Z,18.23
2019-01-26T08:08:21.015Z,18.23
2019-01-26T08:09:21.454Z,18.23
2019-01-26T08:10:21.408Z,18.23
2019-01-26T08:11:21.187Z,18.24
2019-01-26T08:12:21.064Z,18.24
2019-01-26T08:13:21.385Z,18.24
2019-01-26T08:14:21.113Z,18.25
2019-01-26T08:15:22.285Z,18.26
2019-01-26T08:16:21.327Z,18.26
2019-01-26T08:17:21.491Z,18.28
2019-01-26T08:18:24.523Z,18.28
2019-01-26T08:19:21.918Z,18.28
2019-01-26T08:20:21.228Z,18.28
2019-01-26T08:21:21.213Z,18.3
2019-01-26T08:22:21.322Z,18.29
2019-01-26T08:23:21.435Z,18.29
2019-01-26T08:24:21.254Z,18.29
2019-01-26T08:25:21.454Z,18.3
2019-01-26T08:26:21.690Z,18.3
2019-01-26T08:27:21.070Z,18.31
2019-01-26T08:28:20.880Z,18.31
2019-01-26T08:29:21.114Z,18.31
2019-01-26T08:30:20.919Z,18.31
2019-01-26T08:31:21.092Z,18.33
2019-01-26T08:32:22.121Z,18.33
2019-01-26T08:33:21.261Z,18.33
2019-01-26T08:34:21.310Z,18.34
2019-01-26T08:35:20.921Z,18.34
2019-01-26T08:36:21.085Z,18.34
2019-01-26T08:37:21.294Z,18.35
2019-01-26T08:38:24.239Z,18.35
2019-01-26T08:39:21.765Z,18.35
2019-01-26T08:40:21.250Z,18.35
2019-01-26T08:41:21.171Z,18.35
2019-01-26T08:42:22.784Z,18.36
2019-01-26T08:43:22.247Z,18.37
2019-01-26T08:44:21.613Z,18.37
2019-01-26T08:45:21.611Z,18.37
2019-01-26T08:46:21.412Z,18.38
2019-01-26T08:47:24.048Z,18.38
2019-01-26T08:48:21.422Z,18.37
2019-01-26T08:49:21.974Z,18.39
2019-01-26T08:50:22.918Z,18.4
2019-01-26T08:51:21.352Z,18.39
2019-01-26T08:52:21.183Z,18.4
2019-01-26T08:53:21.237Z,18.39
2019-01-26T08:54:21.817Z,18.4
2019-01-26T08:55:21.262Z,18.41
2019-01-26T08:56:21.278Z,18.41
2019-01-26T08:57:21.278Z,18.41
2019-01-26T08:58:21.139Z,18.41
2019-01-26T08:59:21.536Z,18.41
2019-01-26T09:00:22.907Z,18.41
2019-01-26T09:01:22.003Z,18.41
2019-01-26T09:02:25.985Z,18.41
2019-01-26T09:03:21.009Z,18.41
2019-01-26T09:04:21.332Z,18.41
2019-01-26T09:05:21.828Z,18.42
2019-01-26T09:06:21.104Z,18.42
2019-01-26T09:07:22.258Z,18.41
2019-01-26T09:08:21.902Z,18.42
2019-01-26T09:09:20.844Z,18.41
2019-01-26T09:10:21.213Z,18.42
2019-01-26T09:11:21.127Z,18.43
2019-01-26T09:12:21.182Z,18.44
2019-01-26T09:13:21.167Z,18.45
2019-01-26T09:14:21.140Z,18.45
2019-01-26T09:15:20.811Z,18.46
2019-01-26T09:16:21.079Z,18.48
2019-01-26T09:17:21.206Z,18.48
2019-01-26T09:18:21.039Z,18.49
2019-01-26T09:19:21.308Z,18.51
2019-01-26T09:20:21.318Z,18.52
2019-01-26T09:21:20.998Z,18.52
2019-01-26T09:22:24.000Z,18.54
2019-01-26T09:23:21.041Z,18.56
2019-01-26T09:24:21.270Z,18.58
2019-01-26T09:25:21.001Z,18.56
2019-01-26T09:26:21.519Z,18.6
2019-01-26T09:27:21.330Z,18.61
2019-01-26T09:28:20.983Z,18.63
2019-01-26T09:29:21.295Z,18.64
2019-01-26T09:30:20.913Z,18.66
2019-01-26T09:31:21.418Z,18.68
2019-01-26T09:32:21.359Z,18.68
2019-01-26T09:33:21.284Z,18.69
2019-01-26T09:34:21.120Z,18.68
2019-01-26T09:35:21.454Z,18.7
2019-01-26T09:36:21.019Z,18.71
2019-01-26T09:37:22.636Z,18.71
2019-01-26T09:38:21.006Z,18.72
2019-01-26T09:39:21.241Z,18.72
2019-01-26T09:40:20.983Z,18.73
2019-01-26T09:41:21.103Z,18.74
2019-01-26T09:42:21.035Z,18.73
2019-01-26T09:43:21.315Z,18.74
2019-01-26T09:44:21.442Z,18.75
2019-01-26T09:45:20.882Z,18.75
2019-01-26T09:46:21.097Z,18.76
2019-01-26T09:47:21.081Z,18.78
2019-01-26T09:48:21.071Z,18.78
2019-01-26T09:49:21.046Z,18.79
2019-01-26T09:50:20.925Z,18.8
2019-01-26T09:51:21.278Z,18.81
2019-01-26T09:52:21.354Z,18.81
2019-01-26T09:53:21.286Z,18.82
2019-01-26T09:54:21.326Z,18.82
2019-01-26T09:55:20.901Z,18.84
2019-01-26T09:56:20.900Z,18.85
2019-01-26T09:57:21.249Z,18.84
2019-01-26T09:58:21.241Z,18.85
2019-01-26T09:59:21.665Z,18.85
2019-01-26T10:00:21.122Z,18.86
2019-01-26T10:01:21.172Z,18.87
2019-01-26T10:02:21.338Z,18.87
2019-01-26T10:03:21.306Z,18.88
2019-01-26T10:04:20.851Z,18.89
2019-01-26T10:05:21.003Z,18.9
2019-01-26T10:06:21.108Z,18.9
2019-01-26T10:07:21.203Z,18.89
2019-01-26T10:08:20.974Z,18.9
2019-01-26T10:09:21.116Z,18.9
2019-01-26T10:10:21.318Z,18.91
2019-01-26T10:11:21.505Z,18.91
2019-01-26T10:12:22.110Z,18.92
2019-01-26T10:13:22.782Z,18.92
2019-01-26T10:14:22.595Z,18.93
2019-01-26T10:15:21.598Z,18.95
2019-01-26T10:16:22.143Z,18.96
2019-01-26T10:17:21.061Z,18.96
2019-01-26T10:18:21.238Z,18.96
2019-01-26T10:19:20.873Z,18.97
2019-01-26T10:20:21.464Z,18.97
2019-01-26T10:21:21.117Z,18.97
2019-01-26T10:22:21.488Z,18.97
2019-01-26T10:23:22.044Z,18.98
2019-01-26T10:24:21.049Z,18.97
2019-01-26T10:25:20.921Z,18.97
2019-01-26T10:26:21.323Z,18.97
2019-01-26T10:27:20.994Z,18.97
2019-01-26T10:28:21.467Z,18.97
2019-01-26T10:29:21.867Z,18.97
2019-01-26T10:30:21.574Z,18.97
2019-01-26T10:31:20.959Z,18.97
2019-01-26T10:32:21.000Z,18.97
2019-01-26T10:33:21.328Z,18.97
2019-01-26T10:34:21.047Z,18.96
2019-01-26T10:35:20.896Z,18.96
2019-01-26T10:36:21.266Z,18.97
2019-01-26T10:37:21.568Z,18.96
2019-01-26T10:38:20.962Z,18.97
2019-01-26T10:39:23.115Z,18.97
2019-01-26T10:40:22.836Z,18.96
2019-01-26T10:41:21.897Z,18.96
2019-01-26T10:42:21.539Z,18.97
2019-01-26T10:43:21.212Z,18.96
2019-01-26T10:44:21.190Z,18.97
2019-01-26T10:45:21.145Z,18.97
2019-01-26T10:46:21.931Z,18.97
2019-01-26T10:47:20.997Z,18.98
2019-01-26T10:48:22.936Z,18.99
2019-01-26T10:49:21.609Z,19
2019-01-26T10:50:21.179Z,19
2019-01-26T10:51:20.885Z,18.97
2019-01-26T10:52:21.134Z,18.98
2019-01-26T10:53:21.286Z,19
2019-01-26T10:54:21.008Z,19.02
2019-01-26T10:55:22.742Z,19.03
2019-01-26T10:56:21.230Z,19.03
2019-01-26T10:57:21.747Z,19.06
2019-01-26T10:58:22.644Z,19.07
2019-01-26T10:59:20.791Z,19.09
2019-01-26T11:00:20.997Z,19.09
2019-01-26T11:01:21.121Z,19.09
2019-01-26T11:02:21.267Z,19.08
2019-01-26T11:03:20.924Z,19.09
2019-01-26T11:04:21.280Z,19.09
2019-01-26T11:05:21.838Z,19.09
2019-01-26T11:06:21.358Z,19.09
2019-01-26T11:07:20.901Z,19.08
2019-01-26T11:08:21.727Z,19.09
2019-01-26T11:09:21.233Z,19.13
2019-01-26T11:10:21.679Z,19.12
2019-01-26T11:11:20.956Z,19.13
2019-01-26T11:12:22.132Z,19.15
2019-01-26T11:13:20.953Z,19.17
2019-01-26T11:14:21.841Z,19.17
2019-01-26T11:15:22.809Z,19.16
2019-01-26T11:16:21.821Z,19.19
2019-01-26T11:17:21.256Z,19.18
2019-01-26T11:18:21.174Z,19.2
2019-01-26T11:19:21.254Z,19.19
2019-01-26T11:20:21.144Z,19.21
2019-01-26T11:21:21.100Z,19.21
2019-01-26T11:22:21.241Z,19.21
2019-01-26T11:23:21.191Z,19.23
2019-01-26T11:24:21.249Z,19.23
2019-01-26T11:25:21.177Z,19.23
2019-01-26T11:26:21.108Z,19.26
2019-01-26T11:27:21.694Z,19.26
2019-01-26T11:28:21.397Z,19.26
2019-01-26T11:29:21.621Z,19.26
2019-01-26T11:30:21.194Z,19.27
2019-01-26T11:31:21.213Z,19.27
2019-01-26T11:32:21.475Z,19.28
2019-01-26T11:33:21.464Z,19.3
2019-01-26T11:34:21.072Z,19.31
2019-01-26T11:35:21.038Z,19.3
2019-01-26T11:36:21.176Z,19.32
2019-01-26T11:37:21.501Z,19.3
2019-01-26T11:38:22.936Z,19.3
2019-01-26T11:39:21.355Z,19.32
2019-01-26T11:40:21.455Z,19.32
2019-01-26T11:41:21.189Z,19.33
2019-01-26T11:42:20.780Z,19.33
2019-01-26T11:43:21.195Z,19.33
2019-01-26T11:44:21.424Z,19.35
2019-01-26T11:45:20.861Z,19.34
2019-01-26T11:46:22.017Z,19.35
2019-01-26T11:47:21.424Z,19.35
2019-01-26T11:48:22.356Z,19.35
2019-01-26T11:49:20.987Z,19.36
2019-01-26T11:50:21.362Z,19.37
2019-01-26T11:51:22.220Z,19.38
2019-01-26T11:52:22.815Z,19.39
2019-01-26T11:53:21.777Z,19.39
2019-01-26T11:54:21.270Z,19.35
2019-01-26T11:55:21.662Z,19.35
2019-01-26T11:56:22.082Z,19.35
2019-01-26T11:57:22.523Z,19.35
2019-01-26T11:58:21.291Z,19.35
2019-01-26T11:59:21.022Z,19.35
2019-01-26T12:00:20.828Z,19.36
2019-01-26T12:01:21.391Z,19.36
2019-01-26T12:02:21.152Z,19.36
2019-01-26T12:03:25.496Z,19.38
2019-01-26T12:04:21.081Z,19.37
2019-01-26T12:05:21.130Z,19.37
2019-01-26T12:06:20.985Z,19.38
2019-01-26T12:07:22.362Z,19.38
2019-01-26T12:08:21.341Z,19.39
2019-01-26T12:09:21.751Z,19.39
2019-01-26T12:10:21.291Z,19.36
2019-01-26T12:11:21.469Z,19.35
2019-01-26T12:12:21.251Z,19.34
2019-01-26T12:13:21.268Z,19.33
2019-01-26T12:14:21.429Z,19.33
2019-01-26T12:15:23.350Z,19.33
2019-01-26T12:16:27.425Z,19.33
2019-01-26T12:17:21.242Z,19.33
2019-01-26T12:18:21.366Z,19.33
2019-01-26T12:19:22.789Z,19.32
2019-01-26T12:20:21.214Z,19.32
2019-01-26T12:21:21.403Z,19.31
2019-01-26T12:22:21.568Z,19.31
2019-01-26T12:23:21.380Z,19.31
2019-01-26T12:24:21.172Z,19.3
2019-01-26T12:25:20.949Z,19.3
2019-01-26T12:26:21.578Z,19.3
2019-01-26T12:27:21.402Z,19.31
2019-01-26T12:28:21.005Z,19.3
2019-01-26T12:29:20.943Z,19.29
2019-01-26T12:30:21.262Z,19.28
2019-01-26T12:31:21.306Z,19.29
2019-01-26T12:32:22.911Z,19.28
2019-01-26T12:33:21.468Z,19.29
2019-01-26T12:34:21.934Z,19.29
2019-01-26T12:35:21.166Z,19.29
2019-01-26T12:36:20.775Z,19.28
2019-01-26T12:37:22.080Z,19.28
2019-01-26T12:38:21.089Z,19.27
2019-01-26T12:39:21.901Z,19.28
2019-01-26T12:40:21.821Z,19.29
2019-01-26T12:41:23.367Z,19.28
2019-01-26T12:42:21.132Z,19.28
2019-01-26T12:43:21.071Z,19.28
2019-01-26T12:44:20.893Z,19.27
2019-01-26T12:45:21.058Z,19.28
2019-01-26T12:46:21.031Z,19.27
2019-01-26T12:47:21.641Z,19.27
2019-01-26T12:48:21.494Z,19.27
2019-01-26T12:49:21.424Z,19.27
2019-01-26T12:50:20.942Z,19.27
2019-01-26T12:51:21.255Z,19.26
2019-01-26T12:52:21.067Z,19.26
2019-01-26T12:53:21.821Z,19.27
2019-01-26T12:54:21.064Z,19.25
2019-01-26T12:55:21.118Z,19.26